Time;durP1;ratioP1;P1;durP2;ratioP2;P2;SDS_P1;SDS_P2;PMS_P1;PMS_P2;Temp;Humidity;BMP_temperature;BMP_pressure;BME280_temperature;BME280_humidity;BME280_pressure;Samples;Min_cycle;Max_cycle;Signal;HPM_P1;HPM_P2
2023/07/09 00:00:50;;;;;;;10.35;7.65;;;;;;;22.40;100.00;101536.16;5049137;28;20535;-59
2023/07/09 00:03:18;;;;;;;10.32;7.10;;;;;;;22.34;100.00;101536.22;5049244;28;20054;-60
2023/07/09 00:05:46;;;;;;;11.70;8.00;;;;;;;22.30;100.00;101540.63;5049278;28;20112;-60
2023/07/09 00:08:27;;;;;;;8.80;7.65;;;;;;;22.24;100.00;101541.53;5049481;28;20028;-60
2023/07/09 00:10:53;;;;;;;8.60;7.32;;;;;;;22.18;100.00;101538.94;5043833;28;20025;-59
2023/07/09 00:13:20;;;;;;;8.57;7.75;;;;;;;22.14;100.00;101547.75;5029000;28;20022;-59
2023/07/09 00:15:45;;;;;;;9.05;7.85;;;;;;;22.11;100.00;101547.78;5029221;28;20029;-60
2023/07/09 00:18:10;;;;;;;8.45;7.57;;;;;;;22.05;100.00;101546.06;5028929;28;20037;-60
2023/07/09 00:20:36;;;;;;;12.02;8.75;;;;;;;22.06;100.00;101548.69;5029455;28;20214;-60
2023/07/09 00:23:04;;;;;;;10.65;8.90;;;;;;;22.06;100.00;101555.72;5029173;28;20021;-60
2023/07/09 00:25:30;;;;;;;10.43;8.88;;;;;;;22.00;100.00;101556.59;5028688;28;20221;-59
2023/07/09 00:27:55;;;;;;;10.18;9.00;;;;;;;21.97;100.00;101561.03;5029026;28;20092;-60
2023/07/09 00:30:23;;;;;;;9.57;8.02;;;;;;;21.95;100.00;101563.66;5028859;28;20036;-60
2023/07/09 00:32:51;;;;;;;10.73;8.40;;;;;;;21.90;100.00;101555.78;5029008;28;20112;-60
2023/07/09 00:35:17;;;;;;;11.70;8.57;;;;;;;21.88;100.00;101554.91;5028550;28;20473;-59
2023/07/09 00:37:44;;;;;;;11.57;9.77;;;;;;;21.86;100.00;101558.47;5028665;28;20040;-59
2023/07/09 00:40:21;;;;;;;10.88;9.77;;;;;;;21.85;100.00;101554.03;5027664;28;20519;-60
2023/07/09 00:42:49;;;;;;;11.93;8.80;;;;;;;21.81;100.00;101561.97;5028889;28;20034;-60
2023/07/09 00:45:24;;;;;;;10.90;9.38;;;;;;;21.79;100.00;101563.72;5028924;28;20485;-59
2023/07/09 00:48:01;;;;;;;9.20;8.07;;;;;;;21.75;100.00;101567.22;5028820;28;20022;-60
2023/07/09 00:50:37;;;;;;;10.15;9.00;;;;;;;21.70;100.00;101563.72;5028984;28;20034;-60
2023/07/09 00:53:30;;;;;;;10.07;9.07;;;;;;;21.68;100.00;101565.50;5028583;28;20075;-60
2023/07/09 00:56:03;;;;;;;12.93;9.10;;;;;;;21.67;100.00;101566.38;5027806;28;20037;-60
2023/07/09 00:58:29;;;;;;;12.23;9.35;;;;;;;21.67;100.00;101561.13;5028531;28;20057;-60
2023/07/09 01:00:59;;;;;;;12.35;9.23;;;;;;;21.67;100.00;101561.13;5028240;28;20437;-60
2023/07/09 01:03:45;;;;;;;11.63;9.32;;;;;;;21.67;100.00;101558.47;5028721;28;20415;-60
2023/07/09 01:06:12;;;;;;;10.23;8.95;;;;;;;21.64;100.00;101556.72;5027448;28;20037;-60
2023/07/09 01:08:42;;;;;;;10.95;8.80;;;;;;;21.59;100.00;101556.75;5028429;28;20545;-60
2023/07/09 01:11:21;;;;;;;9.38;8.00;;;;;;;21.55;100.00;101556.75;5028185;28;20021;-60
2023/07/09 01:13:58;;;;;;;9.75;8.77;;;;;;;21.50;100.00;101561.16;5027755;28;20057;-60
2023/07/09 01:16:27;;;;;;;11.23;8.93;;;;;;;21.47;100.00;101556.78;5027794;28;20029;-60
2023/07/09 01:18:53;;;;;;;9.85;8.85;;;;;;;21.45;100.00;101563.81;5028355;28;20118;-59
2023/07/09 01:21:18;;;;;;;10.10;8.95;;;;;;;21.43;100.00;101560.28;5027410;28;20482;-59
2023/07/09 01:23:45;;;;;;;11.68;9.45;;;;;;;21.41;100.00;101556.78;5028056;28;20389;-59
2023/07/09 01:26:14;;;;;;;10.23;9.02;;;;;;;21.38;100.00;101554.16;5027547;28;20400;-60
2023/07/09 01:28:43;;;;;;;9.93;8.57;;;;;;;21.34;100.00;101556.78;5028213;28;20022;-60
2023/07/09 01:31:17;;;;;;;9.95;8.93;;;;;;;21.30;100.00;101560.31;5027696;28;20052;-59
2023/07/09 01:33:47;;;;;;;10.65;9.23;;;;;;;21.27;100.00;101559.44;5030638;28;20040;-59
2023/07/09 01:36:15;;;;;;;11.05;9.27;;;;;;;21.25;100.00;101564.72;5047385;28;20546;-59
2023/07/09 01:38:42;;;;;;;10.90;8.63;;;;;;;21.22;100.00;101562.97;5047627;28;20127;-60
2023/07/09 01:41:08;;;;;;;10.38;8.98;;;;;;;21.19;100.00;101564.75;5047622;28;20025;-59
2023/07/09 01:43:34;;;;;;;10.13;8.57;;;;;;;21.17;100.00;101567.38;5047524;28;20024;-60
2023/07/09 01:45:59;;;;;;;10.50;8.82;;;;;;;21.17;100.00;101572.66;5047744;28;20144;-59
2023/07/09 01:48:26;;;;;;;9.18;8.15;;;;;;;21.14;100.00;101579.66;5047872;28;20438;-59
2023/07/09 01:50:52;;;;;;;10.00;8.85;;;;;;;21.11;100.00;101578.78;5048122;28;20029;-60
2023/07/09 01:53:23;;;;;;;12.02;9.05;;;;;;;21.08;100.00;101580.53;5048017;28;20067;-59
2023/07/09 01:55:49;;;;;;;12.02;8.65;;;;;;;21.05;100.00;101591.94;5047352;28;20102;-60
2023/07/09 01:58:16;;;;;;;10.93;9.80;;;;;;;21.00;100.00;101583.16;5047711;28;20029;-60
2023/07/09 02:00:41;;;;;;;10.50;9.43;;;;;;;20.97;100.00;101588.44;5047507;28;20048;-60
2023/07/09 02:03:07;;;;;;;11.88;9.60;;;;;;;20.95;100.00;101584.94;5047954;28;20036;-60
2023/07/09 02:05:33;;;;;;;11.80;9.70;;;;;;;20.95;100.00;101591.09;5047694;28;20033;-60
2023/07/09 02:07:59;;;;;;;11.90;10.35;;;;;;;20.91;100.00;101585.75;5046983;28;20365;-59
2023/07/09 02:10:24;;;;;;;12.52;9.80;;;;;;;20.88;100.00;101594.56;5047554;28;20025;-59
2023/07/09 02:12:50;;;;;;;11.68;10.18;;;;;;;20.85;100.00;101590.16;5047521;28;20029;-59
2023/07/09 02:15:15;;;;;;;11.50;9.95;;;;;;;20.83;100.00;101581.38;5047353;28;20032;-60
2023/07/09 02:17:41;;;;;;;11.23;10.02;;;;;;;20.82;100.00;101590.16;5047215;28;20445;-60
2023/07/09 02:20:08;;;;;;;19.48;10.57;;;;;;;20.80;100.00;101591.03;5047729;28;20075;-59
2023/07/09 02:22:34;;;;;;;12.30;11.10;;;;;;;20.79;100.00;101590.16;5047101;28;20524;-60
2023/07/09 02:25:00;;;;;;;12.57;10.63;;;;;;;20.77;100.00;101591.91;5051027;28;20119;-59
2023/07/09 02:27:25;;;;;;;11.40;10.23;;;;;;;20.78;100.00;101588.38;5051257;28;20435;-58
2023/07/09 02:29:50;;;;;;;13.05;11.10;;;;;;;20.78;100.00;101582.28;5051027;28;20029;-60
2023/07/09 02:32:22;;;;;;;11.68;9.93;;;;;;;20.77;100.00;101586.66;5051311;28;20047;-59
2023/07/09 02:34:48;;;;;;;13.35;11.43;;;;;;;20.75;100.00;101585.75;5050751;28;20390;-60
2023/07/09 02:37:17;;;;;;;12.57;10.52;;;;;;;20.72;100.00;101583.13;5051141;28;20028;-60
2023/07/09 02:39:43;;;;;;;11.18;10.10;;;;;;;20.70;100.00;101584.88;5050716;28;20184;-60
2023/07/09 02:42:11;;;;;;;12.57;10.77;;;;;;;20.68;100.00;101586.63;5051086;28;20536;-60
2023/07/09 02:44:36;;;;;;;15.27;11.48;;;;;;;20.67;100.00;101585.75;5051259;28;20033;-60
2023/07/09 02:47:02;;;;;;;14.63;13.13;;;;;;;20.65;100.00;101584.88;5050734;28;20067;-59
2023/07/09 02:49:27;;;;;;;14.05;12.55;;;;;;;20.61;100.00;101584.00;5050670;28;20082;-60
2023/07/09 02:51:52;;;;;;;13.98;11.68;;;;;;;20.58;100.00;101583.97;5050811;28;20112;-60
2023/07/09 02:54:18;;;;;;;13.05;11.00;;;;;;;20.53;100.00;101583.09;5050886;28;20794;-60
2023/07/09 02:56:43;;;;;;;12.57;11.35;;;;;;;20.51;100.00;101582.19;5049891;28;20107;-59
2023/07/09 02:59:09;;;;;;;13.25;11.93;;;;;;;20.47;100.00;101585.72;5050730;28;20055;-60
2023/07/09 03:01:35;;;;;;;15.10;11.60;;;;;;;20.45;100.00;101580.47;5050881;28;20032;-60
2023/07/09 03:04:01;;;;;;;12.93;11.35;;;;;;;20.43;100.00;101583.94;5050517;28;20025;-60
2023/07/09 03:06:27;;;;;;;12.35;10.80;;;;;;;20.44;100.00;101588.31;5050470;28;20029;-60
2023/07/09 03:08:53;;;;;;;11.98;10.75;;;;;;;20.43;100.00;101582.19;5048889;28;20029;-60
2023/07/09 03:11:20;;;;;;;11.98;10.77;;;;;;;20.45;100.00;101579.56;5050388;28;20040;-60
2023/07/09 03:13:46;;;;;;;11.90;10.70;;;;;;;20.45;100.00;101583.09;5050603;28;20052;-59
2023/07/09 03:16:12;;;;;;;13.13;10.48;;;;;;;20.42;100.00;101580.44;5050382;28;20025;-59
2023/07/09 03:18:39;;;;;;;13.57;10.70;;;;;;;20.43;100.00;101581.31;5049976;28;20502;-59
2023/07/09 03:21:04;;;;;;;14.38;12.07;;;;;;;20.40;100.00;101574.28;5049662;28;20029;-59
2023/07/09 03:23:30;;;;;;;13.02;11.63;;;;;;;20.37;100.00;101582.16;5049642;28;20049;-59
2023/07/09 03:25:57;;;;;;;14.20;12.75;;;;;;;20.36;100.00;101581.28;5048544;28;20025;-59
2023/07/09 03:28:22;;;;;;;15.60;12.43;;;;;;;20.34;100.00;101583.06;5048538;28;20484;-59
2023/07/09 03:30:49;;;;;;;14.90;11.88;;;;;;;20.31;100.00;101582.16;5048251;28;20059;-60
2023/07/09 03:33:16;;;;;;;14.02;12.07;;;;;;;20.30;100.00;101581.28;5048393;28;20770;-58
2023/07/09 03:35:41;;;;;;;17.40;12.52;;;;;;;20.27;100.00;101576.03;5046497;28;20021;-60
2023/07/09 03:38:08;;;;;;;14.52;12.15;;;;;;;20.26;100.00;101576.88;5047975;28;20057;-59
2023/07/09 03:40:34;;;;;;;13.32;11.93;;;;;;;20.25;100.00;101575.13;5047437;28;20492;-60
2023/07/09 03:43:00;;;;;;;14.25;12.15;;;;;;;20.24;100.00;101581.25;5049713;28;20020;-60
2023/07/09 03:45:25;;;;;;;14.80;11.60;;;;;;;20.22;100.00;101583.88;5050322;28;20370;-59
2023/07/09 03:47:51;;;;;;;12.55;11.25;;;;;;;20.23;100.00;101574.25;5048710;28;20338;-60
2023/07/09 03:50:17;;;;;;;13.23;11.70;;;;;;;20.22;100.00;101575.13;5049950;28;20448;-59
2023/07/09 03:52:42;;;;;;;12.13;10.80;;;;;;;20.20;100.00;101574.25;5049826;28;20021;-59
2023/07/09 03:55:08;;;;;;;13.13;11.82;;;;;;;20.16;100.00;101575.97;5049054;28;20480;-60
2023/07/09 03:57:34;;;;;;;14.43;11.05;;;;;;;20.14;100.00;101581.25;5050065;28;20052;-59
2023/07/09 04:00:00;;;;;;;12.30;10.98;;;;;;;20.12;100.00;101584.72;5049604;28;20154;-60
2023/07/09 04:02:25;;;;;;;13.48;12.02;;;;;;;20.11;100.00;101575.94;5048237;28;20020;-59
2023/07/09 04:04:50;;;;;;;14.05;12.18;;;;;;;20.14;100.00;101583.88;5049172;28;20442;-60
2023/07/09 04:07:16;;;;;;;13.77;11.63;;;;;;;20.16;100.00;101583.88;5049487;28;20033;-59
2023/07/09 04:09:42;;;;;;;12.63;11.32;;;;;;;20.20;100.00;101582.13;5049447;28;20358;-60
2023/07/09 04:12:08;;;;;;;13.43;12.02;;;;;;;20.22;100.00;101575.13;5049237;28;20028;-59
2023/07/09 04:14:34;;;;;;;14.20;12.25;;;;;;;20.25;100.00;101572.50;5049483;28;20384;-59
2023/07/09 04:16:59;;;;;;;13.05;11.75;;;;;;;20.28;100.00;101568.13;5048608;28;20025;-59
2023/07/09 04:19:24;;;;;;;13.38;11.13;;;;;;;20.34;100.00;101575.16;5049027;28;20025;-59
2023/07/09 04:21:50;;;;;;;12.43;11.13;;;;;;;20.37;100.00;101572.53;5049376;28;20027;-59
2023/07/09 04:24:19;;;;;;;13.25;11.85;;;;;;;20.40;100.00;101572.53;5048850;28;20087;-58
2023/07/09 04:26:45;;;;;;;13.35;11.95;;;;;;;20.45;100.00;101582.19;5049012;28;20029;-59
2023/07/09 04:29:11;;;;;;;14.52;12.40;;;;;;;20.46;100.00;101578.69;5049088;28;20814;-60
2023/07/09 04:31:37;;;;;;;14.80;13.10;;;;;;;20.48;100.00;101585.72;5048782;28;20182;-60
2023/07/09 04:34:03;;;;;;;13.93;12.43;;;;;;;20.51;100.00;101585.72;5047646;28;20031;-60
2023/07/09 04:36:29;;;;;;;14.05;12.27;;;;;;;20.55;100.00;101583.97;5048757;28;20028;-59
2023/07/09 04:38:54;;;;;;;13.63;12.23;;;;;;;20.59;100.00;101582.22;5048706;28;20060;-59
2023/07/09 04:41:19;;;;;;;14.60;13.10;;;;;;;20.63;100.00;101579.59;5047811;28;20021;-60
2023/07/09 04:43:45;;;;;;;13.80;12.40;;;;;;;20.69;100.00;101583.09;5048783;28;20039;-59
2023/07/09 04:46:10;;;;;;;13.23;12.05;;;;;;;20.72;100.00;101577.88;5047022;28;20036;-59
2023/07/09 04:48:35;;;;;;;13.43;11.63;;;;;;;20.76;100.00;101577.84;5047618;28;20039;-60
2023/07/09 04:51:01;;;;;;;14.52;12.43;;;;;;;20.81;100.00;101577.88;5048917;28;20171;-59
2023/07/09 04:53:27;;;;;;;14.05;12.63;;;;;;;20.87;100.00;101577.88;5048416;28;20082;-59
2023/07/09 04:55:52;;;;;;;15.02;13.43;;;;;;;20.93;100.00;101581.38;5048673;28;20032;-59
2023/07/09 04:58:18;;;;;;;15.38;13.75;;;;;;;20.99;100.00;101581.44;5048312;28;20064;-60
2023/07/09 05:00:44;;;;;;;14.63;13.05;;;;;;;21.04;100.00;101578.78;5048845;28;20048;-60
2023/07/09 05:03:09;;;;;;;14.98;13.50;;;;;;;21.10;100.00;101584.91;5047806;28;20465;-60
2023/07/09 05:05:35;;;;;;;15.93;13.43;;;;;;;21.16;100.00;101577.88;5048267;28;20020;-58
2023/07/09 05:08:01;;;;;;;15.13;13.57;;;;;;;21.23;100.00;101579.63;5048516;28;20025;-60
2023/07/09 05:10:26;;;;;;;16.08;12.80;;;;;;;21.28;100.00;101569.97;5048503;28;20551;-59
2023/07/09 05:12:54;;;;;;;14.73;13.27;;;;;;;21.34;100.00;101577.00;5048193;28;20052;-59
2023/07/09 05:15:21;;;;;;;16.83;13.23;;;;;;;21.42;100.00;101579.63;5048788;28;20399;-60
2023/07/09 05:17:46;;;;;;;19.33;14.02;;;;;;;21.48;100.00;101574.34;5047859;28;20107;-59
2023/07/09 05:20:13;;;;;;;16.25;13.05;;;;;;;21.56;100.00;101579.59;5047795;28;20163;-59
2023/07/09 05:22:38;;;;;;;13.77;12.32;;;;;;;21.62;100.00;101576.06;5047965;28;20028;-58
2023/07/09 05:25:04;;;;;;;15.32;13.73;;;;;;;21.69;100.00;101577.81;5048029;28;20381;-59
2023/07/09 05:27:29;;;;;;;15.43;13.82;;;;;;;21.77;100.00;101581.28;5047957;28;20074;-60
2023/07/09 05:29:55;;;;;;;15.70;13.13;;;;;;;21.85;100.00;101573.41;5047808;28;20021;-60
2023/07/09 05:32:20;;;;;;;14.48;13.13;;;;;;;21.92;100.00;101579.50;5047669;28;20028;-60
2023/07/09 05:34:46;;;;;;;14.68;13.02;;;;;;;22.00;100.00;101571.59;5047859;28;20165;-60
2023/07/09 05:37:11;;;;;;;16.58;13.88;;;;;;;22.07;100.00;101574.16;5047491;28;20054;-59
2023/07/09 05:39:36;;;;;;;17.42;14.45;;;;;;;22.16;100.00;101572.38;5047700;28;20068;-59
2023/07/09 05:42:02;;;;;;;14.55;12.57;;;;;;;22.26;100.00;101574.09;5047941;28;20362;-60
2023/07/09 05:44:27;;;;;;;16.05;12.77;;;;;;;22.36;100.00;101579.31;5047256;28;20322;-59
2023/07/09 05:46:52;;;;;;;12.95;11.63;;;;;;;22.45;100.00;101573.97;5048003;28;20083;-59
2023/07/09 05:49:18;;;;;;;13.18;11.73;;;;;;;22.55;100.00;101573.03;5047716;28;20040;-60
2023/07/09 05:51:43;;;;;;;15.48;12.25;;;;;;;22.65;100.00;101575.63;5047866;28;20086;-60
2023/07/09 05:54:08;;;;;;;14.48;13.00;;;;;;;22.75;100.00;101573.81;5047892;28;20477;-60
2023/07/09 05:56:34;;;;;;;16.05;12.45;;;;;;;22.86;100.00;101579.00;5047746;28;20032;-60
2023/07/09 05:58:59;;;;;;;14.02;11.05;;;;;;;22.97;100.00;101571.84;5046637;28;20032;-60
2023/07/09 06:01:26;;;;;;;15.15;10.93;;;;;;;23.10;100.00;101587.59;5047896;28;20021;-59
2023/07/09 06:03:51;;;;;;;14.80;11.48;;;;;;;23.20;100.00;101584.00;5047722;28;20086;-60
2023/07/09 06:06:17;;;;;;;11.07;9.98;;;;;;;23.33;100.00;101583.88;5047484;28;20451;-60
2023/07/09 06:08:42;;;;;;;12.82;11.40;;;;;;;23.44;100.00;101592.59;5047431;28;20028;-59
2023/07/09 06:11:08;;;;;;;11.73;10.35;;;;;;;23.56;100.00;101596.00;5044014;28;20116;-59
2023/07/09 06:13:34;;;;;;;13.32;11.25;;;;;;;23.66;100.00;101595.00;5027556;28;20104;-60
2023/07/09 06:16:00;;;;;;;12.98;11.68;;;;;;;23.75;100.00;101586.97;5027390;28;20104;-60
2023/07/09 06:18:29;;;;;;;13.38;11.02;;;;;;;23.87;100.00;101588.59;5026917;28;20021;-58
2023/07/09 06:20:57;;;;;;;12.63;10.10;;;;;;;23.99;100.00;101589.34;5027596;28;20040;-59
2023/07/09 06:23:22;;;;;;;13.27;10.70;;;;;;;24.08;100.00;101583.06;5027496;28;20060;-59
2023/07/09 06:25:48;;;;;;;12.95;10.23;;;;;;;24.19;100.00;101594.44;5026889;28;20034;-58
2023/07/09 06:28:20;;;;;;;10.20;9.15;;;;;;;24.32;100.00;101596.91;5027363;28;20049;-59
2023/07/09 06:30:48;;;;;;;16.42;10.75;;;;;;;24.40;100.00;101595.00;5027286;28;20056;-60
2023/07/09 06:33:15;;;;;;;12.70;10.70;;;;;;;24.49;100.00;101595.75;5027421;28;20545;-60
2023/07/09 06:35:47;;;;;;;12.63;9.93;;;;;;;24.65;100.00;101607.00;5027466;28;20029;-60
2023/07/09 06:38:12;;;;;;;12.10;9.88;;;;;;;24.76;100.00;101590.94;5027062;28;20048;-59
2023/07/09 06:40:38;;;;;;;10.75;9.65;;;;;;;24.92;100.00;101595.13;5027442;28;20033;-60
2023/07/09 06:43:04;;;;;;;12.73;10.40;;;;;;;25.03;100.00;101588.78;5026890;28;20381;-60
2023/07/09 06:45:29;;;;;;;9.88;8.82;;;;;;;25.18;100.00;101593.78;5027346;28;20026;-59
2023/07/09 06:47:54;;;;;;;14.13;11.35;;;;;;;25.33;100.00;101597.06;5027669;28;20021;-59
2023/07/09 06:50:20;;;;;;;11.27;10.18;;;;;;;25.50;100.00;101594.13;5026468;28;20036;-60
2023/07/09 06:52:46;;;;;;;10.30;9.30;;;;;;;25.67;100.00;101592.97;5027235;28;20223;-60
2023/07/09 06:55:11;;;;;;;13.20;9.88;;;;;;;25.82;100.00;101594.41;5027161;28;20052;-60
2023/07/09 06:57:37;;;;;;;10.57;9.48;;;;;;;25.88;99.19;101594.31;5027701;28;20025;-60
2023/07/09 07:00:03;;;;;;;11.13;9.93;;;;;;;25.99;99.69;101598.50;5026899;28;20041;-59
2023/07/09 07:02:28;;;;;;;11.02;9.40;;;;;;;26.06;98.33;101605.44;5027190;28;20029;-60
2023/07/09 07:04:53;;;;;;;10.18;8.93;;;;;;;26.19;98.67;101608.69;5027338;28;20523;-59
2023/07/09 07:07:19;;;;;;;10.48;9.32;;;;;;;26.33;98.54;101602.19;5027076;28;20033;-60
2023/07/09 07:09:45;;;;;;;10.77;9.68;;;;;;;26.43;96.67;101594.91;5027289;28;20449;-59
2023/07/09 07:12:23;;;;;;;10.15;8.27;;;;;;;26.48;94.72;101595.69;5030562;28;20061;-60
2023/07/09 07:14:48;;;;;;;12.18;8.18;;;;;;;26.59;94.10;101590.97;5030642;28;20446;-60
2023/07/09 07:17:14;;;;;;;9.20;8.30;;;;;;;26.67;88.66;101600.56;5030484;28;20065;-60
2023/07/09 07:19:39;;;;;;;8.82;7.97;;;;;;;26.79;89.80;101602.91;5030592;28;20056;-60
2023/07/09 07:22:06;;;;;;;9.23;7.43;;;;;;;26.89;89.08;101603.56;5030483;28;20057;-60
2023/07/09 07:24:32;;;;;;;12.05;8.30;;;;;;;27.02;88.37;101604.13;5030198;28;20530;-60
2023/07/09 07:26:57;;;;;;;9.98;8.98;;;;;;;27.07;85.82;101604.91;5030431;28;20104;-59
2023/07/09 07:29:22;;;;;;;10.43;7.82;;;;;;;27.20;86.82;101607.28;5030312;28;20040;-60
2023/07/09 07:31:48;;;;;;;11.07;7.60;;;;;;;27.33;87.25;101608.69;5030095;28;20025;-60
2023/07/09 07:34:13;;;;;;;7.82;7.10;;;;;;;27.46;86.11;101608.34;5030485;28;20035;-60
2023/07/09 07:36:39;;;;;;;7.93;7.13;;;;;;;27.60;84.59;101609.72;5029646;28;20379;-60
2023/07/09 07:39:04;;;;;;;7.90;7.10;;;;;;;27.71;81.02;101597.03;5030010;28;20046;-59
2023/07/09 07:41:30;;;;;;;7.35;6.43;;;;;;;27.74;78.27;101604.06;5030009;28;20061;-60
2023/07/09 07:43:55;;;;;;;6.97;6.28;;;;;;;27.90;79.17;101604.50;5029750;28;20032;-60
2023/07/09 07:46:20;;;;;;;7.25;6.40;;;;;;;28.04;77.10;101602.31;5030037;28;20036;-60
2023/07/09 07:48:46;;;;;;;7.70;6.90;;;;;;;28.15;76.10;101598.44;5029199;28;20041;-60
2023/07/09 07:51:11;;;;;;;9.13;7.35;;;;;;;28.22;74.43;101597.34;5029479;28;20453;-60
2023/07/09 07:53:36;;;;;;;6.82;5.95;;;;;;;28.35;71.08;101596.94;5029215;28;20033;-60
2023/07/09 07:56:02;;;;;;;6.15;4.90;;;;;;;28.51;69.97;101598.22;5029764;28;20025;-60
2023/07/09 07:58:28;;;;;;;10.77;5.88;;;;;;;28.69;68.62;101608.34;5029543;28;20030;-59
2023/07/09 08:00:57;;;;;;;8.50;5.80;;;;;;;28.81;67.33;101609.72;5029560;28;20079;-61
2023/07/09 08:03:23;;;;;;;10.77;6.03;;;;;;;28.88;63.30;101616.59;5029861;28;20042;-60
2023/07/09 08:05:50;;;;;;;8.57;5.25;;;;;;;29.00;64.26;101610.88;5029931;28;20505;-60
2023/07/09 08:08:15;;;;;;;6.65;5.85;;;;;;;29.14;65.44;101606.88;5030098;28;20037;-61
2023/07/09 08:10:40;;;;;;;7.68;6.03;;;;;;;29.30;66.05;101603.66;5029695;28;20439;-60
2023/07/09 08:13:05;;;;;;;7.18;5.30;;;;;;;29.31;61.74;101597.38;5030184;28;20034;-60
2023/07/09 08:15:32;;;;;;;6.07;5.47;;;;;;;29.36;61.24;101590.09;5030242;28;20033;-61
2023/07/09 08:17:57;;;;;;;6.53;5.88;;;;;;;29.33;59.15;101590.19;5030032;28;20036;-60
2023/07/09 08:20:22;;;;;;;7.63;5.93;;;;;;;29.52;60.13;101594.88;5029719;28;20030;-60
2023/07/09 08:22:47;;;;;;;7.28;5.43;;;;;;;29.64;58.64;101589.13;5029723;28;20029;-60
2023/07/09 08:25:13;;;;;;;6.10;5.50;;;;;;;29.86;61.41;101598.13;5029809;28;20033;-61
2023/07/09 08:27:38;;;;;;;5.53;5.03;;;;;;;30.08;61.08;101601.69;5029887;28;20471;-61
2023/07/09 08:30:05;;;;;;;8.82;5.30;;;;;;;30.27;60.46;101586.78;5029606;28;20028;-61
2023/07/09 08:32:30;;;;;;;7.57;4.90;;;;;;;30.44;60.20;101591.44;5029751;28;20053;-61
2023/07/09 08:34:55;;;;;;;9.05;5.63;;;;;;;30.61;60.18;101584.53;5029021;28;20049;-60
2023/07/09 08:37:21;;;;;;;6.88;5.45;;;;;;;30.68;57.58;101586.88;5029882;28;20021;-60
2023/07/09 08:39:46;;;;;;;7.43;5.57;;;;;;;30.78;56.34;101586.50;5029617;28;20053;-61
2023/07/09 08:42:15;;;;;;;5.90;5.30;;;;;;;30.95;58.82;101588.47;5029507;28;20033;-60
2023/07/09 08:44:49;;;;;;;8.25;5.63;;;;;;;31.10;57.13;101586.06;5029570;28;20079;-61
2023/07/09 08:47:17;;;;;;;8.77;6.00;;;;;;;31.25;56.18;101589.88;5029153;28;20030;-60
2023/07/09 08:50:20;;;;;;;6.82;5.75;;;;;;;31.34;55.50;101599.31;5028895;28;20025;-60
2023/07/09 08:52:50;;;;;;;8.13;6.03;;;;;;;31.38;53.45;101588.41;5026584;28;20116;-60
2023/07/09 08:55:18;;;;;;;6.47;5.57;;;;;;;31.47;53.36;101588.94;5029317;28;20037;-61
2023/07/09 08:57:55;;;;;;;7.13;5.35;;;;;;;31.64;55.75;101599.75;5029541;28;20649;-61
2023/07/09 09:00:29;;;;;;;7.00;6.05;;;;;;;31.77;55.25;101595.66;5029323;28;20384;-60
2023/07/09 09:03:29;;;;;;;8.00;5.88;;;;;;;31.75;54.01;101593.06;5029542;28;20468;-61
2023/07/09 09:05:55;;;;;;;7.32;5.68;;;;;;;31.85;53.98;101588.13;5029765;28;20044;-60
2023/07/09 09:08:47;;;;;;;6.13;5.50;;;;;;;31.97;53.78;101586.66;5029412;28;20362;-61
2023/07/09 09:11:21;;;;;;;7.88;5.72;;;;;;;32.10;54.36;101576.25;5029119;28;20026;-61
2023/07/09 09:13:50;;;;;;;7.05;5.60;;;;;;;32.26;55.05;101576.38;5028581;28;20029;-61
2023/07/09 09:16:27;;;;;;;6.97;5.53;;;;;;;32.41;54.66;101582.81;5029275;28;20030;-61
2023/07/09 09:18:57;;;;;;;6.18;4.88;;;;;;;32.47;53.02;101574.44;5029186;28;20882;-61
2023/07/09 09:21:36;;;;;;;6.55;6.03;;;;;;;32.56;53.13;101578.50;5028940;28;20432;-61
2023/07/09 09:24:31;;;;;;;6.05;5.40;;;;;;;32.68;52.83;101576.16;5029081;28;20537;-61
2023/07/09 09:26:58;;;;;;;6.43;5.50;;;;;;;32.26;48.69;101580.88;5028974;28;20033;-61
2023/07/09 09:29:25;;;;;;;8.45;5.78;;;;;;;32.39;49.95;101583.81;5028876;28;20393;-60
2023/07/09 09:31:57;;;;;;;7.38;5.22;;;;;;;32.53;51.95;101581.31;5028309;28;20025;-61
2023/07/09 09:34:29;;;;;;;7.57;6.15;;;;;;;32.61;48.58;101578.28;5028478;28;20049;-61
2023/07/09 09:36:57;;;;;;;7.22;5.63;;;;;;;32.44;49.76;101571.06;5029393;28;20509;-61
2023/07/09 09:39:24;;;;;;;5.70;5.10;;;;;;;32.65;50.61;101566.44;5028558;28;20136;-60
2023/07/09 09:41:54;;;;;;;5.80;5.20;;;;;;;32.73;49.79;101566.06;5028885;28;20029;-61
2023/07/09 09:44:25;;;;;;;6.55;5.75;;;;;;;32.90;50.86;101554.47;5029289;28;20100;-61
2023/07/09 09:46:51;;;;;;;7.68;5.93;;;;;;;33.04;49.71;101561.78;5028805;28;20087;-60
2023/07/09 09:49:16;;;;;;;7.72;5.78;;;;;;;33.11;49.75;101562.38;5028816;28;20025;-60
2023/07/09 09:51:46;;;;;;;7.95;5.38;;;;;;;33.16;48.64;101554.06;5028985;28;20542;-61
2023/07/09 09:54:17;;;;;;;7.93;5.87;;;;;;;33.09;46.02;101547.25;5028092;28;20028;-60
2023/07/09 09:56:43;;;;;;;6.78;5.43;;;;;;;33.19;49.26;101541.34;5028802;28;20026;-60
2023/07/09 09:59:21;;;;;;;6.60;5.93;;;;;;;33.36;49.08;101533.31;5028479;28;20040;-61
2023/07/09 10:01:57;;;;;;;6.43;5.68;;;;;;;33.43;46.22;101535.59;5028781;28;20100;-61
2023/07/09 10:04:22;;;;;;;7.50;5.47;;;;;;;33.51;48.78;101532.50;5028640;28;20032;-60
2023/07/09 10:06:56;;;;;;;5.80;5.22;;;;;;;33.58;49.12;101534.84;5028602;28;20026;-61
2023/07/09 10:09:45;;;;;;;7.38;5.57;;;;;;;33.64;48.64;101538.03;5028584;28;20446;-61
2023/07/09 10:12:59;;;;;;;9.05;6.35;;;;;;;33.59;47.84;101542.81;5028516;28;20031;-61
2023/07/09 10:15:40;;;;;;;6.65;6.05;;;;;;;33.61;47.54;101548.09;5027088;28;20040;-61
2023/07/09 10:18:27;;;;;;;7.03;6.05;;;;;;;33.61;47.67;101540.91;5028285;28;20545;-61
2023/07/09 10:21:14;;;;;;;7.43;6.72;;;;;;;33.70;49.85;101536.88;5028383;28;20033;-61
2023/07/09 10:24:13;;;;;;;6.38;5.65;;;;;;;33.76;47.20;101552.66;5027870;28;20036;-61
2023/07/09 10:26:43;;;;;;;6.40;5.55;;;;;;;33.90;48.66;101559.06;5028186;28;20109;-61
2023/07/09 10:29:23;;;;;;;6.28;5.35;;;;;;;33.98;46.20;101556.78;5028210;28;20355;-61
2023/07/09 10:32:19;;;;;;;6.13;5.47;;;;;;;34.06;46.79;101561.75;5028161;28;20032;-60
2023/07/09 10:34:59;;;;;;;6.60;5.05;;;;;;;34.16;47.88;101556.72;5028157;28;20382;-61
2023/07/09 10:37:55;;;;;;;7.72;5.50;;;;;;;34.24;46.75;101556.28;5028001;28;20056;-59
2023/07/09 10:40:39;;;;;;;7.03;5.25;;;;;;;34.19;44.92;101564.59;5027653;28;20142;-58
2023/07/09 10:43:11;;;;;;;6.20;4.80;;;;;;;34.32;45.19;101558.53;5027150;28;20112;-58
2023/07/09 10:45:43;;;;;;;5.65;4.80;;;;;;;34.42;45.60;101565.09;5030494;28;20488;-59
2023/07/09 10:48:31;;;;;;;7.13;5.25;;;;;;;34.53;45.47;101555.53;5030629;28;20063;-58
2023/07/09 10:50:56;;;;;;;5.90;5.00;;;;;;;34.62;45.57;101560.38;5031188;28;20112;-61
2023/07/09 10:53:55;;;;;;;6.82;5.35;;;;;;;34.62;44.06;101557.66;5031009;28;20577;-61
2023/07/09 10:56:24;;;;;;;5.90;4.82;;;;;;;34.67;45.02;101546.63;5029501;28;20059;-61
2023/07/09 10:59:04;;;;;;;6.40;5.20;;;;;;;34.74;45.91;101554.28;5031009;28;20025;-61
2023/07/09 11:01:42;;;;;;;5.50;5.00;;;;;;;34.78;47.19;101533.44;5030998;28;20033;-61
2023/07/09 11:04:17;;;;;;;6.90;5.15;;;;;;;34.79;44.01;101539.69;5031321;28;20251;-60
2023/07/09 11:06:46;;;;;;;5.18;4.68;;;;;;;34.73;44.68;101535.53;5030793;28;20029;-61
2023/07/09 11:09:30;;;;;;;6.07;4.35;;;;;;;34.78;46.38;101537.94;5030394;28;20026;-61
2023/07/09 11:12:02;;;;;;;7.28;5.40;;;;;;;34.76;44.98;101535.34;5031085;28;20030;-61
2023/07/09 11:14:35;;;;;;;8.88;5.20;;;;;;;34.77;42.92;101533.53;5031231;28;20478;-60
2023/07/09 11:17:02;;;;;;;7.97;5.13;;;;;;;34.78;45.74;101535.25;5031049;28;20033;-61
2023/07/09 11:19:27;;;;;;;5.18;4.68;;;;;;;34.79;44.80;101539.69;5030375;28;20057;-61